createdAt,value
2018-08-19T00:00:59.441Z,14.00
2018-08-19T00:03:28.038Z,14.57
2018-08-19T00:05:56.613Z,14.80
2018-08-19T00:08:25.387Z,14.40
2018-08-19T00:11:06.980Z,15.10
2018-08-19T00:13:36.718Z,15.07
2018-08-19T00:16:05.508Z,13.40
2018-08-19T00:18:35.709Z,14.30
2018-08-19T00:21:08.418Z,14.93
2018-08-19T00:23:42.600Z,14.93
2018-08-19T00:26:11.475Z,14.87
2018-08-19T00:28:40.381Z,15.80
2018-08-19T00:31:08.949Z,14.30
2018-08-19T00:33:37.765Z,16.67
2018-08-19T00:36:22.931Z,13.30
2018-08-19T00:38:51.531Z,17.10
2018-08-19T00:41:20.095Z,16.57
2018-08-19T00:43:48.661Z,15.47
2018-08-19T00:46:26.731Z,14.80
2018-08-19T00:48:55.943Z,15.20
2018-08-19T00:51:25.045Z,16.30
2018-08-19T00:53:54.911Z,14.57
2018-08-19T00:56:23.951Z,15.90
2018-08-19T00:58:52.908Z,14.93
2018-08-19T01:01:34.303Z,14.07
2018-08-19T01:04:03.211Z,16.20
2018-08-19T01:06:38.650Z,14.27
2018-08-19T01:09:09.234Z,17.00
2018-08-19T01:11:38.539Z,15.77
2018-08-19T01:14:10.616Z,15.50
2018-08-19T01:16:39.196Z,15.67
2018-08-19T01:19:08.643Z,16.07
2018-08-19T01:21:37.211Z,15.63
2018-08-19T01:24:10.264Z,15.20
2018-08-19T01:26:40.091Z,15.63
2018-08-19T01:29:10.034Z,16.70
2018-08-19T01:31:38.698Z,16.70
2018-08-19T01:34:08.549Z,17.43
2018-08-19T01:36:37.194Z,17.93
2018-08-19T01:39:08.462Z,17.97
2018-08-19T01:41:37.887Z,17.03
2018-08-19T01:44:13.838Z,15.57
2018-08-19T01:46:46.971Z,17.50
2018-08-19T01:49:15.519Z,16.53
2018-08-19T01:51:44.864Z,17.10
2018-08-19T01:54:19.814Z,16.73
2018-08-19T01:56:55.091Z,17.10
2018-08-19T01:59:25.724Z,16.80
2018-08-19T02:01:57.889Z,16.27
2018-08-19T02:04:26.519Z,16.93
2018-08-19T02:06:55.262Z,16.63
2018-08-19T02:09:25.581Z,18.10
2018-08-19T02:11:55.536Z,16.80
2018-08-19T02:14:24.594Z,17.97
2018-08-19T02:16:53.895Z,17.77
2018-08-19T02:19:22.546Z,17.77
2018-08-19T02:21:51.971Z,16.93
2018-08-19T02:24:20.577Z,16.77
2018-08-19T02:26:50.899Z,16.33
2018-08-19T02:29:36.206Z,16.30
2018-08-19T02:32:07.270Z,16.90
2018-08-19T02:34:38.005Z,16.90
2018-08-19T02:37:11.265Z,16.63
2018-08-19T02:39:42.634Z,16.43
2018-08-19T02:42:23.010Z,17.73
2018-08-19T02:44:53.512Z,18.10
2018-08-19T02:47:22.394Z,17.63
2018-08-19T02:49:51.341Z,16.70
2018-08-19T02:52:33.485Z,18.27
2018-08-19T02:55:03.486Z,19.00
2018-08-19T02:57:32.993Z,17.10
2018-08-19T03:00:02.614Z,19.17
2018-08-19T03:02:36.564Z,17.53
2018-08-19T03:05:06.948Z,17.80
2018-08-19T03:07:35.557Z,17.87
2018-08-19T03:10:11.103Z,18.23
2018-08-19T03:12:40.235Z,17.63
2018-08-19T03:15:10.197Z,16.47
2018-08-19T03:17:39.046Z,17.50
2018-08-19T03:20:11.409Z,17.00
2018-08-19T03:22:39.921Z,18.07
2018-08-19T03:25:09.381Z,17.60
2018-08-19T03:27:37.894Z,17.57
2018-08-19T03:30:11.767Z,16.77
2018-08-19T03:32:48.482Z,18.30
2018-08-19T03:35:18.742Z,18.40
2018-08-19T03:37:49.728Z,17.43
2018-08-19T03:40:18.473Z,18.00
2018-08-19T03:42:47.045Z,18.53
2018-08-19T03:45:20.837Z,16.40
2018-08-19T03:47:50.590Z,17.90
2018-08-19T03:50:20.085Z,17.30
2018-08-19T03:52:48.942Z,19.43
2018-08-19T03:55:23.066Z,19.27
2018-08-19T03:57:52.139Z,18.37
2018-08-19T04:00:21.126Z,17.73
2018-08-19T04:02:49.666Z,19.17
2018-08-19T04:05:24.891Z,20.63
2018-08-19T04:07:53.454Z,18.70
2018-08-19T04:10:21.990Z,19.30
2018-08-19T04:12:50.493Z,18.87
2018-08-19T04:15:19.051Z,16.80
2018-08-19T04:17:47.525Z,19.43
2018-08-19T04:20:16.089Z,17.90
2018-08-19T04:22:44.697Z,18.87
2018-08-19T04:25:13.505Z,17.27
2018-08-19T04:27:42.766Z,16.97
2018-08-19T04:30:11.748Z,17.47
2018-08-19T04:32:40.414Z,18.80
2018-08-19T04:35:08.967Z,16.97
2018-08-19T04:37:37.566Z,18.50
2018-08-19T04:40:06.570Z,16.10
2018-08-19T04:42:35.110Z,15.67
2018-08-19T04:45:03.633Z,14.40
2018-08-19T04:47:33.595Z,16.40
2018-08-19T04:50:02.474Z,16.87
2018-08-19T04:52:33.008Z,16.80
2018-08-19T04:55:02.083Z,18.23
2018-08-19T04:57:30.661Z,18.30
2018-08-19T04:59:59.176Z,19.83
2018-08-19T05:02:27.856Z,18.97
2018-08-19T05:04:56.271Z,20.83
2018-08-19T05:07:25.108Z,20.17
2018-08-19T05:09:53.614Z,21.07
2018-08-19T05:12:22.236Z,23.00
2018-08-19T05:14:50.872Z,20.10
2018-08-19T05:17:19.469Z,20.60
2018-08-19T05:19:48.104Z,17.90
2018-08-19T05:22:16.804Z,20.37
2018-08-19T05:24:46.306Z,20.60
2018-08-19T05:27:17.159Z,21.03
2018-08-19T05:29:45.693Z,19.70
2018-08-19T05:32:16.922Z,18.10
2018-08-19T05:34:45.423Z,18.80
2018-08-19T05:37:13.974Z,19.77
2018-08-19T05:40:12.990Z,19.50
2018-08-19T05:42:42.493Z,21.77
2018-08-19T05:45:11.042Z,21.70
2018-08-19T05:47:39.631Z,21.13
2018-08-19T05:50:08.154Z,21.20
2018-08-19T05:52:36.681Z,22.37
2018-08-19T05:55:05.286Z,24.00
2018-08-19T05:57:34.922Z,24.73
2018-08-19T06:00:08.733Z,25.67
2018-08-19T06:02:44.437Z,22.33
2018-08-19T06:05:13.076Z,24.20
2018-08-19T06:07:44.183Z,23.97
2018-08-19T06:10:12.736Z,24.60
2018-08-19T06:12:41.236Z,23.83
2018-08-19T06:15:09.850Z,21.97
2018-08-19T06:17:38.419Z,23.23
2018-08-19T06:20:06.984Z,23.17
2018-08-19T06:22:39.884Z,22.70
2018-08-19T06:25:09.047Z,22.07
2018-08-19T06:27:45.576Z,21.57
2018-08-19T06:30:15.099Z,21.00
2018-08-19T06:32:44.790Z,20.03
2018-08-19T06:35:13.691Z,20.10
2018-08-19T06:37:42.283Z,21.33
2018-08-19T06:40:12.218Z,20.90
2018-08-19T06:42:40.787Z,21.33
2018-08-19T06:45:10.479Z,20.70
2018-08-19T06:47:39.109Z,22.63
2018-08-19T06:50:16.838Z,22.70
2018-08-19T06:52:45.459Z,22.87
2018-08-19T06:55:14.436Z,20.47
2018-08-19T06:57:43.513Z,20.63
2018-08-19T07:00:17.693Z,20.23
2018-08-19T07:02:47.720Z,23.53
2018-08-19T07:05:16.407Z,23.13
2018-08-19T07:07:45.108Z,24.13
2018-08-19T07:10:17.099Z,22.43
2018-08-19T07:12:46.458Z,26.10
2018-08-19T07:15:14.978Z,27.03
2018-08-19T07:17:43.499Z,25.27
2018-08-19T07:20:12.894Z,27.83
2018-08-19T07:22:41.490Z,25.50
2018-08-19T07:25:10.114Z,24.77
2018-08-19T07:27:38.642Z,26.30
2018-08-19T07:30:07.725Z,25.30
2018-08-19T07:32:36.265Z,26.93
2018-08-19T07:35:05.646Z,25.33
2018-08-19T07:37:34.223Z,25.20
2018-08-19T07:40:03.480Z,21.97
2018-08-19T07:42:32.005Z,22.30
2018-08-19T07:45:00.564Z,19.40
2018-08-19T07:47:29.051Z,22.53
2018-08-19T07:49:58.557Z,21.50
2018-08-19T07:52:27.042Z,21.50
2018-08-19T07:54:55.669Z,19.83
2018-08-19T07:57:28.663Z,19.30
2018-08-19T07:59:57.399Z,20.03
2018-08-19T08:02:28.262Z,22.17
2018-08-19T08:04:56.847Z,20.20
2018-08-19T08:07:27.974Z,18.33
2018-08-19T08:09:56.575Z,19.73
2018-08-19T08:12:25.314Z,19.10
2018-08-19T08:14:54.926Z,20.67
2018-08-19T08:17:24.991Z,17.77
2018-08-19T08:19:57.763Z,16.87
2018-08-19T08:22:28.369Z,17.17
2018-08-19T08:24:57.724Z,17.97
2018-08-19T08:27:26.685Z,17.97
2018-08-19T08:29:55.477Z,18.60
2018-08-19T08:32:24.128Z,15.67
2018-08-19T08:34:53.065Z,16.07
2018-08-19T08:37:21.623Z,14.20
2018-08-19T08:39:55.538Z,14.70
2018-08-19T08:42:28.785Z,13.80
2018-08-19T08:44:57.351Z,12.80
2018-08-19T08:47:25.938Z,11.77
2018-08-19T08:49:55.012Z,12.83
2018-08-19T08:52:23.610Z,13.17
2018-08-19T08:54:55.025Z,12.07
2018-08-19T08:57:24.766Z,12.90
2018-08-19T08:59:53.874Z,11.97
2018-08-19T09:02:22.704Z,10.33
2018-08-19T09:04:52.695Z,9.80
2018-08-19T09:07:21.904Z,11.30
2018-08-19T09:09:50.760Z,9.53
2018-08-19T09:12:57.693Z,8.77
2018-08-19T09:15:26.308Z,8.07
2018-08-19T09:17:54.917Z,8.87
2018-08-19T09:20:23.522Z,8.70
2018-08-19T09:22:52.117Z,8.20
2018-08-19T09:25:20.687Z,9.43
2018-08-19T09:27:49.468Z,9.00
2018-08-19T09:30:45.653Z,9.27
2018-08-19T09:33:14.686Z,8.17
2018-08-19T09:35:44.043Z,8.20
2018-08-19T09:38:20.230Z,7.83
2018-08-19T09:40:49.090Z,7.23
2018-08-19T09:43:18.094Z,8.67
2018-08-19T09:45:47.434Z,9.80
2018-08-19T09:48:17.111Z,9.43
2018-08-19T09:50:46.168Z,8.83
2018-08-19T09:53:15.502Z,8.10
2018-08-19T09:56:17.073Z,7.90
2018-08-19T09:58:52.019Z,7.87
2018-08-19T10:01:25.832Z,7.87
2018-08-19T10:03:55.641Z,8.10
2018-08-19T10:06:24.957Z,7.90
2018-08-19T10:08:53.585Z,7.20
2018-08-19T10:11:22.183Z,8.27
2018-08-19T10:13:55.069Z,7.33
2018-08-19T10:16:33.062Z,8.10
2018-08-19T10:19:02.178Z,7.50
2018-08-19T10:21:30.788Z,8.23
2018-08-19T10:24:04.724Z,7.30
2018-08-19T10:26:33.339Z,7.60
2018-08-19T10:29:01.989Z,8.10
2018-08-19T10:31:30.656Z,7.60
2018-08-19T10:33:59.231Z,6.90
2018-08-19T10:36:27.781Z,8.17
2018-08-19T10:38:56.989Z,7.00
2018-08-19T10:41:25.628Z,7.03
2018-08-19T10:43:54.278Z,6.80
2018-08-19T10:46:22.862Z,8.00
2018-08-19T10:48:51.398Z,6.70
2018-08-19T10:51:20.009Z,7.20
2018-08-19T10:53:48.685Z,7.37
2018-08-19T10:56:17.460Z,6.60
2018-08-19T10:58:50.257Z,6.60
2018-08-19T11:01:20.408Z,6.40
2018-08-19T11:03:49.193Z,6.83
2018-08-19T11:06:17.920Z,6.80
2018-08-19T11:08:51.891Z,7.07
2018-08-19T11:11:20.403Z,7.63
2018-08-19T11:13:48.931Z,7.90
2018-08-19T11:16:18.818Z,7.83
2018-08-19T11:18:48.637Z,7.20
2018-08-19T11:21:26.464Z,6.73
2018-08-19T11:23:55.872Z,7.07
2018-08-19T11:26:24.518Z,6.53
2018-08-19T11:28:55.303Z,7.43
2018-08-19T11:31:29.210Z,6.90
2018-08-19T11:33:59.898Z,7.57
2018-08-19T11:36:34.962Z,7.70
2018-08-19T11:39:04.814Z,7.50
2018-08-19T11:41:34.365Z,6.57
2018-08-19T11:44:08.557Z,6.57
2018-08-19T11:46:37.250Z,7.30
2018-08-19T11:49:14.470Z,6.73
2018-08-19T11:51:50.126Z,7.23
2018-08-19T11:54:19.786Z,6.80
2018-08-19T11:56:55.986Z,7.10
2018-08-19T11:59:29.339Z,7.30
2018-08-19T12:01:58.327Z,6.40
2018-08-19T12:04:27.008Z,7.10
2018-08-19T12:06:55.734Z,7.60
2018-08-19T12:09:24.770Z,6.63
2018-08-19T12:11:53.384Z,6.63
2018-08-19T12:14:22.253Z,7.20
2018-08-19T12:16:59.757Z,6.00
2018-08-19T12:19:30.616Z,8.00
2018-08-19T12:22:01.338Z,6.80
2018-08-19T12:24:34.378Z,7.30
2018-08-19T12:27:04.344Z,6.87
2018-08-19T12:29:36.753Z,6.90
2018-08-19T12:32:13.958Z,6.97
2018-08-19T12:34:48.085Z,7.50
2018-08-19T12:37:17.912Z,6.73
2018-08-19T12:39:46.950Z,7.13
2018-08-19T12:42:15.532Z,6.57
2018-08-19T12:44:47.327Z,7.80
2018-08-19T12:47:19.110Z,7.37
2018-08-19T12:49:50.444Z,7.00
2018-08-19T12:52:21.417Z,6.97
2018-08-19T12:54:55.377Z,7.23
2018-08-19T12:57:25.036Z,7.10
2018-08-19T13:00:04.403Z,6.83
2018-08-19T13:02:35.777Z,5.83
2018-08-19T13:05:05.247Z,6.90
2018-08-19T13:07:34.575Z,7.20
2018-08-19T13:10:04.175Z,6.93
2018-08-19T13:12:36.924Z,7.07
2018-08-19T13:15:06.734Z,6.40
2018-08-19T13:17:35.282Z,6.50
2018-08-19T13:20:07.063Z,6.00
2018-08-19T13:22:56.109Z,6.00
2018-08-19T13:25:25.384Z,6.80
2018-08-19T13:27:53.927Z,6.47
2018-08-19T13:30:22.846Z,6.10
2018-08-19T13:32:52.641Z,5.50
2018-08-19T13:35:21.603Z,5.63
2018-08-19T13:37:50.902Z,5.67
2018-08-19T13:40:19.710Z,6.27
2018-08-19T13:42:49.904Z,5.00
2018-08-19T13:45:20.040Z,5.23
2018-08-19T13:47:50.164Z,5.50
2018-08-19T13:50:18.761Z,6.03
2018-08-19T13:52:47.485Z,4.20
2018-08-19T13:55:17.925Z,4.80
2018-08-19T13:57:46.556Z,4.70
2018-08-19T14:00:19.950Z,5.13
2018-08-19T14:02:49.118Z,5.00
2018-08-19T14:05:17.764Z,4.50
2018-08-19T14:07:46.440Z,4.70
2018-08-19T14:10:16.034Z,4.50
2018-08-19T14:12:45.273Z,4.87
2018-08-19T14:15:14.075Z,4.33
2018-08-19T14:17:42.628Z,5.03
2018-08-19T14:20:12.188Z,4.93
2018-08-19T14:22:40.956Z,4.60
2018-08-19T14:25:11.004Z,4.90
2018-08-19T14:27:39.954Z,4.83
2018-08-19T14:30:10.307Z,6.07
2018-08-19T14:32:40.484Z,5.90
2018-08-19T14:35:08.998Z,5.17
2018-08-19T14:37:37.591Z,5.43
2018-08-19T14:40:07.962Z,5.07
2018-08-19T14:42:36.523Z,5.17
2018-08-19T14:45:05.857Z,5.33
2018-08-19T14:47:34.478Z,6.17
2018-08-19T14:50:03.244Z,5.43
2018-08-19T14:52:31.829Z,5.47
2018-08-19T14:55:00.442Z,5.27
2018-08-19T14:57:29.024Z,5.13
2018-08-19T14:59:57.650Z,5.40
2018-08-19T15:02:26.246Z,5.87
2018-08-19T15:04:54.788Z,4.97
2018-08-19T15:07:23.747Z,6.00
2018-08-19T15:09:54.624Z,6.37
2018-08-19T15:12:25.463Z,6.20
2018-08-19T15:14:58.015Z,6.10
2018-08-19T15:17:27.213Z,6.70
2018-08-19T15:19:56.570Z,6.50
2018-08-19T15:22:25.018Z,5.30
2018-08-19T15:24:54.027Z,6.20
2018-08-19T15:27:22.593Z,5.67
2018-08-19T15:29:53.657Z,5.10
2018-08-19T15:32:23.478Z,5.90
2018-08-19T15:34:52.267Z,5.17
2018-08-19T15:37:21.365Z,5.53
2018-08-19T15:39:49.931Z,5.53
2018-08-19T15:42:18.491Z,5.33
2018-08-19T15:44:47.071Z,5.00
2018-08-19T15:47:15.775Z,6.10
2018-08-19T15:49:44.304Z,5.33
2018-08-19T15:52:13.032Z,4.70
2018-08-19T15:54:47.499Z,5.47
2018-08-19T15:57:16.705Z,5.50
2018-08-19T15:59:45.804Z,5.13
2018-08-19T16:02:14.900Z,5.57
2018-08-19T16:04:44.652Z,5.57
2018-08-19T16:07:14.380Z,6.00
2018-08-19T16:09:43.610Z,5.40
2018-08-19T16:12:12.164Z,5.90
2018-08-19T16:14:40.786Z,5.23
2018-08-19T16:17:09.606Z,5.50
2018-08-19T16:19:38.226Z,5.33
2018-08-19T16:22:06.844Z,5.90
2018-08-19T16:24:35.539Z,5.53
2018-08-19T16:27:04.102Z,5.50
2018-08-19T16:29:32.807Z,5.50
2018-08-19T16:32:01.478Z,4.93
2018-08-19T16:34:30.073Z,5.80
2018-08-19T16:36:58.661Z,6.73
2018-08-19T16:39:27.288Z,5.60
2018-08-19T16:41:56.001Z,5.93
2018-08-19T16:44:24.784Z,5.70
2018-08-19T16:46:53.348Z,5.80
2018-08-19T16:49:21.883Z,6.20
2018-08-19T16:51:50.462Z,5.20
2018-08-19T16:54:19.302Z,6.23
2018-08-19T16:56:47.866Z,5.80
2018-08-19T16:59:16.400Z,6.17
2018-08-19T17:01:45.103Z,6.37
2018-08-19T17:04:13.695Z,6.27
2018-08-19T17:06:42.445Z,6.33
2018-08-19T17:09:10.966Z,5.90
2018-08-19T17:11:39.597Z,6.37
2018-08-19T17:14:08.282Z,5.77
2018-08-19T17:16:36.848Z,6.50
2018-08-19T17:19:05.428Z,6.03
2018-08-19T17:21:34.030Z,6.30
2018-08-19T17:24:02.636Z,6.13
2018-08-19T17:26:31.278Z,6.30
2018-08-19T17:29:04.953Z,6.67
2018-08-19T17:31:34.636Z,5.60
2018-08-19T17:34:08.356Z,6.30
2018-08-19T17:36:37.713Z,5.97
2018-08-19T17:39:09.650Z,5.73
2018-08-19T17:41:39.241Z,6.27
2018-08-19T17:44:07.805Z,6.00
2018-08-19T17:46:36.366Z,6.10
2018-08-19T17:49:07.411Z,6.10
2018-08-19T17:51:36.456Z,6.93
2018-08-19T17:54:13.376Z,5.80
2018-08-19T17:56:41.939Z,6.43
2018-08-19T17:59:11.218Z,6.60
2018-08-19T18:01:41.096Z,5.70
2018-08-19T18:04:09.705Z,6.27
2018-08-19T18:06:38.536Z,6.60
2018-08-19T18:11:38.398Z,6.70
2018-08-19T18:14:07.000Z,6.90
2018-08-19T18:16:36.224Z,6.50
2018-08-19T18:19:04.995Z,6.60
2018-08-19T18:21:37.385Z,6.27
2018-08-19T18:24:06.498Z,6.90
2018-08-19T18:26:35.350Z,6.27
2018-08-19T18:29:04.029Z,6.87
2018-08-19T18:31:32.647Z,7.00
2018-08-19T18:34:02.134Z,6.67
2018-08-19T18:36:34.322Z,7.30
2018-08-19T18:39:04.470Z,6.90
2018-08-19T18:41:37.426Z,6.60
2018-08-19T18:44:07.694Z,6.67
2018-08-19T18:46:36.835Z,7.83
2018-08-19T18:49:13.403Z,7.30
2018-08-19T18:51:44.117Z,7.43
2018-08-19T18:54:21.310Z,7.70
2018-08-19T18:56:50.190Z,7.07
2018-08-19T18:59:18.824Z,7.13
2018-08-19T19:01:47.619Z,7.77
2018-08-19T19:04:16.152Z,7.23
2018-08-19T19:06:44.876Z,7.63
2018-08-19T19:09:13.411Z,6.40
2018-08-19T19:11:42.140Z,7.53
2018-08-19T19:14:15.840Z,9.53
2018-08-19T19:16:46.924Z,9.53
2018-08-19T19:19:16.016Z,7.13
2018-08-19T19:21:49.028Z,7.47
2018-08-19T19:24:24.641Z,7.23
2018-08-19T19:26:53.370Z,7.70
2018-08-19T19:29:26.396Z,8.87
2018-08-19T19:31:56.408Z,7.60
2018-08-19T19:34:25.144Z,9.17
2018-08-19T19:36:53.765Z,8.77
2018-08-19T19:39:22.338Z,8.60
2018-08-19T19:41:55.588Z,7.37
2018-08-19T19:44:27.530Z,7.63
2018-08-19T19:46:56.113Z,8.50
2018-08-19T19:49:24.980Z,8.70
2018-08-19T19:51:58.072Z,8.27
2018-08-19T19:54:28.005Z,7.90
2018-08-19T19:56:56.639Z,8.10
2018-08-19T19:59:28.117Z,6.67
2018-08-19T20:01:56.773Z,7.77
2018-08-19T20:04:25.450Z,7.30
2018-08-19T20:06:54.262Z,7.07
2018-08-19T20:09:22.817Z,7.40
2018-08-19T20:11:51.830Z,7.20
2018-08-19T20:14:20.487Z,7.77
2018-08-19T20:16:49.162Z,7.67
2018-08-19T20:19:18.478Z,7.07
2018-08-19T20:21:47.027Z,8.77
2018-08-19T20:24:15.626Z,8.27
2018-08-19T20:26:44.146Z,8.60
2018-08-19T20:29:13.148Z,8.57
2018-08-19T20:31:41.693Z,8.03
2018-08-19T20:34:10.305Z,9.17
2018-08-19T20:36:38.827Z,7.20
2018-08-19T20:39:07.935Z,7.07
2018-08-19T20:41:37.595Z,8.47
2018-08-19T20:44:08.553Z,7.40
2018-08-19T20:46:45.073Z,7.27
2018-08-19T20:49:13.937Z,7.97
2018-08-19T20:51:42.499Z,8.60
2018-08-19T20:54:11.247Z,8.60
2018-08-19T20:56:40.023Z,8.83
2018-08-19T20:59:08.584Z,8.30
2018-08-19T21:01:37.124Z,8.07
2018-08-19T21:04:05.992Z,9.57
2018-08-19T21:06:34.869Z,8.70
2018-08-19T21:09:03.642Z,8.13
2018-08-19T21:11:32.287Z,8.67
2018-08-19T21:14:01.470Z,7.10
2018-08-19T21:16:30.846Z,7.67
2018-08-19T21:19:00.087Z,7.83
2018-08-19T21:21:28.915Z,8.37
2018-08-19T21:23:58.072Z,8.27
2018-08-19T21:26:26.848Z,8.53
2018-08-19T21:29:01.598Z,8.20
2018-08-19T21:31:30.780Z,7.70
2018-08-19T21:33:59.345Z,8.00
2018-08-19T21:36:27.930Z,7.43
2018-08-19T21:38:57.047Z,6.90
2018-08-19T21:41:56.906Z,8.10
2018-08-19T21:44:25.546Z,7.90
2018-08-19T21:46:54.131Z,8.20
2018-08-19T21:49:22.668Z,8.50
2018-08-19T21:51:52.774Z,7.30
2018-08-19T21:54:21.590Z,8.53
2018-08-19T21:56:50.607Z,8.03
2018-08-19T21:59:24.170Z,8.00
2018-08-19T22:01:56.920Z,7.70
2018-08-19T22:04:25.882Z,9.27
2018-08-19T22:06:55.388Z,8.37
2018-08-19T22:09:30.495Z,7.10
2018-08-19T22:12:00.115Z,9.23
2018-08-19T22:14:29.191Z,9.17
2018-08-19T22:17:03.143Z,9.13
2018-08-19T22:19:32.297Z,9.77
2018-08-19T22:22:01.223Z,8.90
2018-08-19T22:24:29.777Z,8.47
2018-08-19T22:27:05.401Z,8.40
2018-08-19T22:29:33.935Z,8.27
2018-08-19T22:32:02.499Z,8.10
2018-08-19T22:34:31.142Z,8.50
2018-08-19T22:36:59.736Z,9.40
2018-08-19T22:39:28.288Z,9.50
2018-08-19T22:41:56.889Z,8.60
2018-08-19T22:44:25.877Z,9.40
2018-08-19T22:46:54.505Z,8.93
2018-08-19T22:49:24.087Z,9.93
2018-08-19T22:51:53.516Z,8.70
2018-08-19T22:54:22.182Z,9.10
2018-08-19T22:56:50.769Z,9.13
2018-08-19T22:59:19.280Z,7.90
2018-08-19T23:01:48.373Z,9.30
2018-08-19T23:04:17.903Z,8.00
2018-08-19T23:06:46.736Z,9.10
2018-08-19T23:09:15.242Z,9.57
2018-08-19T23:11:48.483Z,8.60
2018-08-19T23:14:28.026Z,8.57
2018-08-19T23:16:56.658Z,8.47
2018-08-19T23:19:26.235Z,9.40
2018-08-19T23:21:54.964Z,8.00
2018-08-19T23:24:24.151Z,10.10
2018-08-19T23:26:52.758Z,8.73
2018-08-19T23:29:21.279Z,9.03
2018-08-19T23:31:49.875Z,9.33
2018-08-19T23:34:18.476Z,9.30
2018-08-19T23:36:47.421Z,9.40
2018-08-19T23:39:16.106Z,9.90
2018-08-19T23:41:44.665Z,8.60
2018-08-19T23:44:13.749Z,9.00
2018-08-19T23:46:42.906Z,9.60
2018-08-19T23:49:11.463Z,9.23
2018-08-19T23:51:40.946Z,9.90
2018-08-19T23:54:09.484Z,9.73
2018-08-19T23:56:38.063Z,9.80
2018-08-19T23:59:06.581Z,10.77
